Aviation Digital Data Service (ADDS)

Output produced by METARs form (0042 UTC 20 April 2019)
found at http://www.aviationweather.gov/metar/data/
 
METAR text: RJOH 200000Z 05005KT 010V080 9999 FEW230 12/03 Q1017
Conditions at: RJOH (MIHO (CIV/JASDF), JP) observed 0000 UTC 20 April 2019
Temperature: 12.0°C (54°F)
Dewpoint: 3.0°C (37°F) [RH = 54%]
Pressure (altimeter): 30.03 inches Hg (1017.0 mb)
Winds: from the NE (50 degrees) at 6 MPH (5 knots; 2.6 m/s)
Visibility: 6 or more miles (10+ km)
Ceiling: at least 12,000 feet AGL
Clouds: few clouds at 23000 feet AGL
Weather: no significant weather observed at this time

METAR text: RJOH 192300Z 11004KT 050V170 9999 FEW004 10/05 Q1017
Conditions at: RJOH (MIHO (CIV/JASDF), JP) observed 2300 UTC 19 April 2019
Temperature: 10.0°C (50°F)
Dewpoint: 5.0°C (41°F) [RH = 71%]
Pressure (altimeter): 30.03 inches Hg (1017.0 mb)
Winds: from the ESE (110 degrees) at 5 MPH (4 knots; 2.1 m/s)
Visibility: 6 or more miles (10+ km)
Ceiling: at least 12,000 feet AGL
Clouds: few clouds at 400 feet AGL
Weather: no significant weather observed at this time

METAR text: RJOH 192200Z VRB02KT 9999 FEW004 08/06 Q1017
Conditions at: RJOH (MIHO (CIV/JASDF), JP) observed 2200 UTC 19 April 2019
Temperature: 8.0°C (46°F)
Dewpoint: 6.0°C (43°F) [RH = 87%]
Pressure (altimeter): 30.03 inches Hg (1017.0 mb)
Winds: variable direction winds at 2 MPH (2 knots; 1.0 m/s)
Visibility: 6 or more miles (10+ km)
Ceiling: at least 12,000 feet AGL
Clouds: few clouds at 400 feet AGL
Weather: no significant weather observed at this time

METAR text: RJOH 192100Z VRB02KT 9999 MIFG FEW004 05/03 Q1017
Conditions at: RJOH (MIHO (CIV/JASDF), JP) observed 2100 UTC 19 April 2019
Temperature: 5.0°C (41°F)
Dewpoint: 3.0°C (37°F) [RH = 87%]
Pressure (altimeter): 30.03 inches Hg (1017.0 mb)
Winds: variable direction winds at 2 MPH (2 knots; 1.0 m/s)
Visibility: 6 or more miles (10+ km)
Ceiling: at least 12,000 feet AGL
Clouds: few clouds at 400 feet AGL
Weather: MIFG  (shallow fog)

METAR text: RJOH 192000Z 19003KT 9999 FEW030 05/03 Q1017
Conditions at: RJOH (MIHO (CIV/JASDF), JP) observed 2000 UTC 19 April 2019
Temperature: 5.0°C (41°F)
Dewpoint: 3.0°C (37°F) [RH = 87%]
Pressure (altimeter): 30.03 inches Hg (1017.0 mb)
Winds: from the S (190 degrees) at 3 MPH (3 knots; 1.5 m/s)
Visibility: 6 or more miles (10+ km)
Ceiling: at least 12,000 feet AGL
Clouds: few clouds at 3000 feet AGL
Weather: no significant weather observed at this time

METAR text: RJOH 191900Z 16003KT 9999 FEW050 05/03 Q1017
Conditions at: RJOH (MIHO (CIV/JASDF), JP) observed 1900 UTC 19 April 2019
Temperature: 5.0°C (41°F)
Dewpoint: 3.0°C (37°F) [RH = 87%]
Pressure (altimeter): 30.03 inches Hg (1017.0 mb)
Winds: from the SSE (160 degrees) at 3 MPH (3 knots; 1.5 m/s)
Visibility: 6 or more miles (10+ km)
Ceiling: at least 12,000 feet AGL
Clouds: few clouds at 5000 feet AGL
Weather: no significant weather observed at this time

METAR text: RJOH 191800Z 18003KT 9999 FEW050 06/04 Q1017
Conditions at: RJOH (MIHO (CIV/JASDF), JP) observed 1800 UTC 19 April 2019
Temperature: 6.0°C (43°F)
Dewpoint: 4.0°C (39°F) [RH = 87%]
Pressure (altimeter): 30.03 inches Hg (1017.0 mb)
Winds: from the S (180 degrees) at 3 MPH (3 knots; 1.5 m/s)
Visibility: 6 or more miles (10+ km)
Ceiling: at least 12,000 feet AGL
Clouds: few clouds at 5000 feet AGL
Weather: no significant weather observed at this time

METAR text: RJOH 191700Z 18002KT 9999 FEW030 07/05 Q1017
Conditions at: RJOH (MIHO (CIV/JASDF), JP) observed 1700 UTC 19 April 2019
Temperature: 7.0°C (45°F)
Dewpoint: 5.0°C (41°F) [RH = 87%]
Pressure (altimeter): 30.03 inches Hg (1017.0 mb)
Winds: from the S (180 degrees) at 2 MPH (2 knots; 1.0 m/s)
Visibility: 6 or more miles (10+ km)
Ceiling: at least 12,000 feet AGL
Clouds: few clouds at 3000 feet AGL
Weather: no significant weather observed at this time

METAR text: RJOH 191600Z 19003KT 150V220 9999 FEW030 07/04 Q1017
Conditions at: RJOH (MIHO (CIV/JASDF), JP) observed 1600 UTC 19 April 2019
Temperature: 7.0°C (45°F)
Dewpoint: 4.0°C (39°F) [RH = 81%]
Pressure (altimeter): 30.03 inches Hg (1017.0 mb)
Winds: from the S (190 degrees) at 3 MPH (3 knots; 1.5 m/s)
Visibility: 6 or more miles (10+ km)
Ceiling: at least 12,000 feet AGL
Clouds: few clouds at 3000 feet AGL
Weather: no significant weather observed at this time

METAR text: RJOH 191500Z 06007KT 9999 FEW030 09/03 Q1017
Conditions at: RJOH (MIHO (CIV/JASDF), JP) observed 1500 UTC 19 April 2019
Temperature: 9.0°C (48°F)
Dewpoint: 3.0°C (37°F) [RH = 66%]
Pressure (altimeter): 30.03 inches Hg (1017.0 mb)
Winds: from the ENE (60 degrees) at 8 MPH (7 knots; 3.6 m/s)
Visibility: 6 or more miles (10+ km)
Ceiling: at least 12,000 feet AGL
Clouds: few clouds at 3000 feet AGL
Weather: no significant weather observed at this time

METAR text: RJOH 191400Z 05009KT 9999 FEW030 10/03 Q1017
Conditions at: RJOH (MIHO (CIV/JASDF), JP) observed 1400 UTC 19 April 2019
Temperature: 10.0°C (50°F)
Dewpoint: 3.0°C (37°F) [RH = 62%]
Pressure (altimeter): 30.03 inches Hg (1017.0 mb)
Winds: from the NE (50 degrees) at 10 MPH (9 knots; 4.6 m/s)
Visibility: 6 or more miles (10+ km)
Ceiling: at least 12,000 feet AGL
Clouds: few clouds at 3000 feet AGL
Weather: no significant weather observed at this time

METAR text: RJOH 191300Z 05007KT 9999 FEW050 10/03 Q1017
Conditions at: RJOH (MIHO (CIV/JASDF), JP) observed 1300 UTC 19 April 2019
Temperature: 10.0°C (50°F)
Dewpoint: 3.0°C (37°F) [RH = 62%]
Pressure (altimeter): 30.03 inches Hg (1017.0 mb)
Winds: from the NE (50 degrees) at 8 MPH (7 knots; 3.6 m/s)
Visibility: 6 or more miles (10+ km)
Ceiling: at least 12,000 feet AGL
Clouds: few clouds at 5000 feet AGL
Weather: no significant weather observed at this time

METAR text: RJOH 191200Z 05009KT 9999 FEW150 BKN/// 10/03 Q1017
Conditions at: RJOH (MIHO (CIV/JASDF), JP) observed 1200 UTC 19 April 2019
Temperature: 10.0°C (50°F)
Dewpoint: 3.0°C (37°F) [RH = 62%]
Pressure (altimeter): 30.03 inches Hg (1017.0 mb)
Winds: from the NE (50 degrees) at 10 MPH (9 knots; 4.6 m/s)
Visibility: 6 or more miles (10+ km)
Ceiling: at least 12,000 feet AGL
Clouds: few clouds at 15000 feet AGL
Weather: no significant weather observed at this time

METAR text: RJOH 191100Z 04008KT 9999 FEW030 SCT150 BKN/// 11/03 Q1017
Conditions at: RJOH (MIHO (CIV/JASDF), JP) observed 1100 UTC 19 April 2019
Temperature: 11.0°C (52°F)
Dewpoint: 3.0°C (37°F) [RH = 58%]
Pressure (altimeter): 30.03 inches Hg (1017.0 mb)
Winds: from the NE (40 degrees) at 9 MPH (8 knots; 4.1 m/s)
Visibility: 6 or more miles (10+ km)
Ceiling: at least 12,000 feet AGL
Clouds: few clouds at 3000 feet AGL
scattered clouds at 15000 feet AGL
Weather: no significant weather observed at this time

METAR text: RJOH 191000Z 05009KT 9999 FEW020 SCT030 BKN150 12/04 Q1017
Conditions at: RJOH (MIHO (CIV/JASDF), JP) observed 1000 UTC 19 April 2019
Temperature: 12.0°C (54°F)
Dewpoint: 4.0°C (39°F) [RH = 58%]
Pressure (altimeter): 30.03 inches Hg (1017.0 mb)
Winds: from the NE (50 degrees) at 10 MPH (9 knots; 4.6 m/s)
Visibility: 6 or more miles (10+ km)
Ceiling: 15000 feet AGL
Clouds: few clouds at 2000 feet AGL
scattered clouds at 3000 feet AGL
broken clouds at 15000 feet AGL
Weather: no significant weather observed at this time

METAR text: RJOH 190900Z 05009KT 9999 FEW020 BKN030 12/04 Q1016
Conditions at: RJOH (MIHO (CIV/JASDF), JP) observed 0900 UTC 19 April 2019
Temperature: 12.0°C (54°F)
Dewpoint: 4.0°C (39°F) [RH = 58%]
Pressure (altimeter): 30.00 inches Hg (1016.0 mb)
Winds: from the NE (50 degrees) at 10 MPH (9 knots; 4.6 m/s)
Visibility: 6 or more miles (10+ km)
Ceiling: 3000 feet AGL
Clouds: few clouds at 2000 feet AGL
broken clouds at 3000 feet AGL
Weather: no significant weather observed at this time

METAR text: RJOH 190800Z 05008KT 9999 FEW010 BKN025 13/04 Q1017
Conditions at: RJOH (MIHO (CIV/JASDF), JP) observed 0800 UTC 19 April 2019
Temperature: 13.0°C (55°F)
Dewpoint: 4.0°C (39°F) [RH = 54%]
Pressure (altimeter): 30.03 inches Hg (1017.0 mb)
Winds: from the NE (50 degrees) at 9 MPH (8 knots; 4.1 m/s)
Visibility: 6 or more miles (10+ km)
Ceiling: 2500 feet AGL
Clouds: few clouds at 1000 feet AGL
broken clouds at 2500 feet AGL
Weather: no significant weather observed at this time

METAR text: RJOH 190700Z 05009KT 9999 FEW010 BKN020 13/04 Q1017
Conditions at: RJOH (MIHO (CIV/JASDF), JP) observed 0700 UTC 19 April 2019
Temperature: 13.0°C (55°F)
Dewpoint: 4.0°C (39°F) [RH = 54%]
Pressure (altimeter): 30.03 inches Hg (1017.0 mb)
Winds: from the NE (50 degrees) at 10 MPH (9 knots; 4.6 m/s)
Visibility: 6 or more miles (10+ km)
Ceiling: 2000 feet AGL
Clouds: few clouds at 1000 feet AGL
broken clouds at 2000 feet AGL
Weather: no significant weather observed at this time

METAR text: RJOH 190600Z 04010KT 9999 FEW010 BKN020 12/05 Q1017
Conditions at: RJOH (MIHO (CIV/JASDF), JP) observed 0600 UTC 19 April 2019
Temperature: 12.0°C (54°F)
Dewpoint: 5.0°C (41°F) [RH = 62%]
Pressure (altimeter): 30.03 inches Hg (1017.0 mb)
Winds: from the NE (40 degrees) at 12 MPH (10 knots; 5.1 m/s)
Visibility: 6 or more miles (10+ km)
Ceiling: 2000 feet AGL
Clouds: few clouds at 1000 feet AGL
broken clouds at 2000 feet AGL
Weather: no significant weather observed at this time

METAR text: RJOH 190500Z 05011KT 9999 FEW010 BKN020 13/05 Q1017
Conditions at: RJOH (MIHO (CIV/JASDF), JP) observed 0500 UTC 19 April 2019
Temperature: 13.0°C (55°F)
Dewpoint: 5.0°C (41°F) [RH = 58%]
Pressure (altimeter): 30.03 inches Hg (1017.0 mb)
Winds: from the NE (50 degrees) at 13 MPH (11 knots; 5.7 m/s)
Visibility: 6 or more miles (10+ km)
Ceiling: 2000 feet AGL
Clouds: few clouds at 1000 feet AGL
broken clouds at 2000 feet AGL
Weather: no significant weather observed at this time

METAR text: RJOH 190400Z 04012KT 9999 FEW010 BKN020 13/05 Q1017
Conditions at: RJOH (MIHO (CIV/JASDF), JP) observed 0400 UTC 19 April 2019
Temperature: 13.0°C (55°F)
Dewpoint: 5.0°C (41°F) [RH = 58%]
Pressure (altimeter): 30.03 inches Hg (1017.0 mb)
Winds: from the NE (40 degrees) at 14 MPH (12 knots; 6.2 m/s)
Visibility: 6 or more miles (10+ km)
Ceiling: 2000 feet AGL
Clouds: few clouds at 1000 feet AGL
broken clouds at 2000 feet AGL
Weather: no significant weather observed at this time

METAR text: RJOH 190300Z 04010KT 9999 FEW007 BKN020 OVC030 13/06 Q1018
Conditions at: RJOH (MIHO (CIV/JASDF), JP) observed 0300 UTC 19 April 2019
Temperature: 13.0°C (55°F)
Dewpoint: 6.0°C (43°F) [RH = 62%]
Pressure (altimeter): 30.06 inches Hg (1018.0 mb)
Winds: from the NE (40 degrees) at 12 MPH (10 knots; 5.1 m/s)
Visibility: 6 or more miles (10+ km)
Ceiling: 2000 feet AGL
Clouds: few clouds at 700 feet AGL
broken clouds at 2000 feet AGL
overcast cloud deck at 3000 feet AGL
Weather: no significant weather observed at this time

METAR text: RJOH 190200Z 05012KT 9999 FEW007 BKN015 OVC025 12/07 Q1018
Conditions at: RJOH (MIHO (CIV/JASDF), JP) observed 0200 UTC 19 April 2019
Temperature: 12.0°C (54°F)
Dewpoint: 7.0°C (45°F) [RH = 71%]
Pressure (altimeter): 30.06 inches Hg (1018.0 mb)
Winds: from the NE (50 degrees) at 14 MPH (12 knots; 6.2 m/s)
Visibility: 6 or more miles (10+ km)
Ceiling: 1500 feet AGL
Clouds: few clouds at 700 feet AGL
broken clouds at 1500 feet AGL
overcast cloud deck at 2500 feet AGL
Weather: no significant weather observed at this time

METAR text: RJOH 190100Z 04012KT 8000 -SHRA FEW007 SCT009 OVC015 11/08 Q1018
Conditions at: RJOH (MIHO (CIV/JASDF), JP) observed 0100 UTC 19 April 2019
Temperature: 11.0°C (52°F)
Dewpoint: 8.0°C (46°F) [RH = 82%]
Pressure (altimeter): 30.06 inches Hg (1018.0 mb)
Winds: from the NE (40 degrees) at 14 MPH (12 knots; 6.2 m/s)
Visibility: 5 miles ( 8 km)
Ceiling: 1500 feet AGL
Clouds: few clouds at 700 feet AGL
scattered clouds at 900 feet AGL
overcast cloud deck at 1500 feet AGL
Weather: -SHRA  (light rain showers)

METAR text: RJOH 190000Z 03011KT 7000 -SHRA FEW007 SCT010 OVC015 12/08 Q1017
Conditions at: RJOH (MIHO (CIV/JASDF), JP) observed 0000 UTC 19 April 2019
Temperature: 12.0°C (54°F)
Dewpoint: 8.0°C (46°F) [RH = 76%]
Pressure (altimeter): 30.03 inches Hg (1017.0 mb)
Winds: from the NNE (30 degrees) at 13 MPH (11 knots; 5.7 m/s)
Visibility: 4 miles ( 7 km)
Ceiling: 1500 feet AGL
Clouds: few clouds at 700 feet AGL
scattered clouds at 1000 feet AGL
overcast cloud deck at 1500 feet AGL
Weather: -SHRA  (light rain showers)

METAR text: RJOH 182300Z 03011KT 9999 -SHRA FEW008 BKN010 OVC015 13/09 Q1016
Conditions at: RJOH (MIHO (CIV/JASDF), JP) observed 2300 UTC 18 April 2019
Temperature: 13.0°C (55°F)
Dewpoint: 9.0°C (48°F) [RH = 77%]
Pressure (altimeter): 30.00 inches Hg (1016.0 mb)
Winds: from the NNE (30 degrees) at 13 MPH (11 knots; 5.7 m/s)
Visibility: 6 or more miles (10+ km)
Ceiling: 1000 feet AGL
Clouds: few clouds at 800 feet AGL
broken clouds at 1000 feet AGL
overcast cloud deck at 1500 feet AGL
Weather: -SHRA  (light rain showers)

METAR text: RJOH 182200Z 03012KT 4000 -SHRA BR FEW008 BKN010 OVC015 13/11 Q1015
Conditions at: RJOH (MIHO (CIV/JASDF), JP) observed 2200 UTC 18 April 2019
Temperature: 13.0°C (55°F)
Dewpoint: 11.0°C (52°F) [RH = 88%]
Pressure (altimeter): 29.97 inches Hg (1015.0 mb)
Winds: from the NNE (30 degrees) at 14 MPH (12 knots; 6.2 m/s)
Visibility: 2.49 miles (4.01 km)
Ceiling: 1000 feet AGL
Clouds: few clouds at 800 feet AGL
broken clouds at 1000 feet AGL
overcast cloud deck at 1500 feet AGL
Weather: -SHRA BR  (light rain showers, mist)

METAR text: RJOH 182100Z 01007KT 9999 -SHRA FEW008 SCT010 BKN015 15/12 Q1014
Conditions at: RJOH (MIHO (CIV/JASDF), JP) observed 2100 UTC 18 April 2019
Temperature: 15.0°C (59°F)
Dewpoint: 12.0°C (54°F) [RH = 82%]
Pressure (altimeter): 29.94 inches Hg (1014.0 mb)
Winds: from the N (10 degrees) at 8 MPH (7 knots; 3.6 m/s)
Visibility: 6 or more miles (10+ km)
Ceiling: 1500 feet AGL
Clouds: few clouds at 800 feet AGL
scattered clouds at 1000 feet AGL
broken clouds at 1500 feet AGL
Weather: -SHRA  (light rain showers)

METAR text: RJOH 182000Z 26014KT 9999 -SHRA FEW020 BKN030 BKN100 17/10 Q1013
Conditions at: RJOH (MIHO (CIV/JASDF), JP) observed 2000 UTC 18 April 2019
Temperature: 17.0°C (63°F)
Dewpoint: 10.0°C (50°F) [RH = 63%]
Pressure (altimeter): 29.91 inches Hg (1013.0 mb)
Winds: from the W (260 degrees) at 16 MPH (14 knots; 7.2 m/s)
Visibility: 6 or more miles (10+ km)
Ceiling: 3000 feet AGL
Clouds: few clouds at 2000 feet AGL
broken clouds at 3000 feet AGL
broken clouds at 10000 feet AGL
Weather: -SHRA  (light rain showers)

METAR text: RJOH 181900Z 26016KT 9999 FEW050 BKN100 17/09 Q1012
Conditions at: RJOH (MIHO (CIV/JASDF), JP) observed 1900 UTC 18 April 2019
Temperature: 17.0°C (63°F)
Dewpoint: 9.0°C (48°F) [RH = 59%]
Pressure (altimeter): 29.88 inches Hg (1012.0 mb)
Winds: from the W (260 degrees) at 18 MPH (16 knots; 8.2 m/s)
Visibility: 6 or more miles (10+ km)
Ceiling: 10000 feet AGL
Clouds: few clouds at 5000 feet AGL
broken clouds at 10000 feet AGL
Weather: no significant weather observed at this time

METAR text: RJOH 181800Z 26018KT 9999 FEW050 BKN100 17/08 Q1012
Conditions at: RJOH (MIHO (CIV/JASDF), JP) observed 1800 UTC 18 April 2019
Temperature: 17.0°C (63°F)
Dewpoint: 8.0°C (46°F) [RH = 55%]
Pressure (altimeter): 29.88 inches Hg (1012.0 mb)
Winds: from the W (260 degrees) at 21 MPH (18 knots; 9.3 m/s)
Visibility: 6 or more miles (10+ km)
Ceiling: 10000 feet AGL
Clouds: few clouds at 5000 feet AGL
broken clouds at 10000 feet AGL
Weather: no significant weather observed at this time

METAR text: RJOH 181700Z 27011KT 9999 FEW080 BKN100 17/09 Q1012
Conditions at: RJOH (MIHO (CIV/JASDF), JP) observed 1700 UTC 18 April 2019
Temperature: 17.0°C (63°F)
Dewpoint: 9.0°C (48°F) [RH = 59%]
Pressure (altimeter): 29.88 inches Hg (1012.0 mb)
Winds: from the W (270 degrees) at 13 MPH (11 knots; 5.7 m/s)
Visibility: 6 or more miles (10+ km)
Ceiling: 10000 feet AGL
Clouds: few clouds at 8000 feet AGL
broken clouds at 10000 feet AGL
Weather: no significant weather observed at this time

METAR text: RJOH 181600Z 26012KT 9999 FEW080 BKN100 17/09 Q1011
Conditions at: RJOH (MIHO (CIV/JASDF), JP) observed 1600 UTC 18 April 2019
Temperature: 17.0°C (63°F)
Dewpoint: 9.0°C (48°F) [RH = 59%]
Pressure (altimeter): 29.85 inches Hg (1011.0 mb)
Winds: from the W (260 degrees) at 14 MPH (12 knots; 6.2 m/s)
Visibility: 6 or more miles (10+ km)
Ceiling: 10000 feet AGL
Clouds: few clouds at 8000 feet AGL
broken clouds at 10000 feet AGL
Weather: no significant weather observed at this time

METAR text: RJOH 181500Z 25012KT 9999 FEW080 BKN100 17/09 Q1012
Conditions at: RJOH (MIHO (CIV/JASDF), JP) observed 1500 UTC 18 April 2019
Temperature: 17.0°C (63°F)
Dewpoint: 9.0°C (48°F) [RH = 59%]
Pressure (altimeter): 29.88 inches Hg (1012.0 mb)
Winds: from the WSW (250 degrees) at 14 MPH (12 knots; 6.2 m/s)
Visibility: 6 or more miles (10+ km)
Ceiling: 10000 feet AGL
Clouds: few clouds at 8000 feet AGL
broken clouds at 10000 feet AGL
Weather: no significant weather observed at this time

METAR text: RJOH 181400Z 25015KT 9999 FEW080 SCT120 17/10 Q1011
Conditions at: RJOH (MIHO (CIV/JASDF), JP) observed 1400 UTC 18 April 2019
Temperature: 17.0°C (63°F)
Dewpoint: 10.0°C (50°F) [RH = 63%]
Pressure (altimeter): 29.85 inches Hg (1011.0 mb)
Winds: from the WSW (250 degrees) at 17 MPH (15 knots; 7.7 m/s)
Visibility: 6 or more miles (10+ km)
Ceiling: at least 12,000 feet AGL
Clouds: few clouds at 8000 feet AGL
scattered clouds at 12000 feet AGL
Weather: no significant weather observed at this time

METAR text: RJOH 181300Z 27014KT 9999 FEW/// 17/10 Q1011
Conditions at: RJOH (MIHO (CIV/JASDF), JP) observed 1300 UTC 18 April 2019
Temperature: 17.0°C (63°F)
Dewpoint: 10.0°C (50°F) [RH = 63%]
Pressure (altimeter): 29.85 inches Hg (1011.0 mb)
Winds: from the W (270 degrees) at 16 MPH (14 knots; 7.2 m/s)
Visibility: 6 or more miles (10+ km)
Ceiling: unknown
Clouds: missing
Weather: no significant weather observed at this time

Forecast for: RJOH (MIHO (CIV/JASDF), JP)
Text: TAF RJOH 192306Z 2000/2106 06013KT 9999 FEW035
Forecast period: 0000 to 1000 UTC 20 April 2019
Forecast type: FROM: standard forecast or significant change
Winds: from the ENE (60 degrees) at 15 MPH (13 knots; 6.7 m/s)
Visibility: 6 or more miles 10+ km)
Ceiling: at least 12,000 feet AGL
Clouds: few clouds at 3500 feet AGL
Weather: no significant weather forecast for this period
Text: BECMG 2010/2012 19004KT
Forecast period: 1000 UTC 20 April 2019 to 0300 UTC 21 April 2019
Forecast type: BECOMING: Conditions expected to become as follows by 1200 UTC 20 April 2019
Winds: from the S (190 degrees) at 5 MPH (4 knots; 2.1 m/s)
Visibility: 6 or more miles 10+ km)
Ceiling: at least 12,000 feet AGL
Clouds: few clouds at 3500 feet AGL
Weather: no significant weather forecast for this period
Text: BECMG 2103/2106 06007KT
Forecast period: 0300 to 0600 UTC 21 April 2019
Forecast type: BECOMING: Conditions expected to become as follows by 0600 UTC 21 April 2019
Winds: from the ENE (60 degrees) at 8 MPH (7 knots; 3.6 m/s)
Visibility: 6 or more miles 10+ km)
Ceiling: at least 12,000 feet AGL
Clouds: few clouds at 3500 feet AGL
Weather: no significant weather forecast for this period